createdAt,value
2023-04-18T00:01:31.007Z,10.57
2023-04-18T00:03:58.035Z,11.65
2023-04-18T00:06:25.965Z,11.02
2023-04-18T00:08:52.637Z,16.95
2023-04-18T00:11:22.358Z,12.02
2023-04-18T00:13:51.924Z,11.50
2023-04-18T00:16:19.579Z,11.55
2023-04-18T00:18:46.081Z,12.60
2023-04-18T00:21:13.514Z,8.90
2023-04-18T00:23:40.029Z,14.68
2023-04-18T00:26:06.444Z,12.75
2023-04-18T00:28:32.933Z,8.93
2023-04-18T00:30:59.499Z,12.27
2023-04-18T00:33:26.095Z,15.73
2023-04-18T00:35:53.841Z,13.43
2023-04-18T00:38:20.653Z,12.40
2023-04-18T00:40:47.147Z,10.38
2023-04-18T00:43:14.742Z,11.10
2023-04-18T00:45:41.286Z,14.02
2023-04-18T00:48:07.947Z,11.07
2023-04-18T00:50:36.519Z,10.55
2023-04-18T00:53:03.434Z,11.32
2023-04-18T00:55:30.201Z,10.05
2023-04-18T00:57:56.656Z,7.63
2023-04-18T01:00:23.165Z,11.15
2023-04-18T01:02:53.227Z,9.35
2023-04-18T01:05:22.915Z,9.43
2023-04-18T01:07:52.144Z,13.48
2023-04-18T01:10:18.770Z,9.30
2023-04-18T01:12:45.238Z,10.90
2023-04-18T01:15:11.840Z,11.98
2023-04-18T01:17:38.511Z,10.30
2023-04-18T01:20:06.439Z,12.82
2023-04-18T01:22:33.538Z,8.32
2023-04-18T01:25:00.211Z,11.25
2023-04-18T01:27:26.924Z,11.77
2023-04-18T01:29:53.636Z,9.85
2023-04-18T01:32:22.552Z,11.27
2023-04-18T01:34:49.192Z,10.45
2023-04-18T01:37:15.673Z,13.02
2023-04-18T01:39:42.126Z,12.32
2023-04-18T01:42:08.629Z,15.63
2023-04-18T01:44:35.082Z,11.63
2023-04-18T01:47:01.779Z,16.65
2023-04-18T01:49:28.388Z,10.50
2023-04-18T01:51:55.052Z,10.50
2023-04-18T01:54:21.672Z,14.13
2023-04-18T01:56:48.191Z,14.98
2023-04-18T01:59:14.598Z,14.98
2023-04-18T02:01:41.095Z,13.75
2023-04-18T02:04:07.660Z,11.70
2023-04-18T02:06:34.252Z,18.05
2023-04-18T02:09:00.797Z,12.77
2023-04-18T02:11:27.292Z,14.45
2023-04-18T02:13:54.962Z,13.60
2023-04-18T02:16:21.570Z,11.57
2023-04-18T02:18:52.383Z,13.30
2023-04-18T02:21:18.985Z,14.45
2023-04-18T02:23:45.429Z,12.45
2023-04-18T02:26:11.852Z,12.93
2023-04-18T02:28:39.124Z,12.48
2023-04-18T02:31:06.266Z,9.05
2023-04-18T02:33:32.775Z,12.55
2023-04-18T02:35:59.281Z,11.75
2023-04-18T02:38:28.604Z,16.77
2023-04-18T02:40:56.397Z,11.05
2023-04-18T02:43:23.002Z,13.15
2023-04-18T02:45:49.587Z,12.20
2023-04-18T02:48:16.124Z,11.00
2023-04-18T02:50:42.629Z,9.38
2023-04-18T02:53:09.080Z,9.02
2023-04-18T02:55:35.540Z,10.60
2023-04-18T02:58:01.952Z,11.73
2023-04-18T03:00:31.483Z,11.73
2023-04-18T03:03:00.906Z,7.57
2023-04-18T03:05:30.870Z,13.30
2023-04-18T03:08:00.593Z,10.68
2023-04-18T03:10:27.946Z,11.85
2023-04-18T03:12:54.421Z,10.30
2023-04-18T03:15:21.067Z,9.55
2023-04-18T03:17:47.563Z,12.13
2023-04-18T03:20:14.473Z,10.52
2023-04-18T03:22:40.960Z,18.35
2023-04-18T03:25:08.131Z,9.23
2023-04-18T03:27:34.600Z,11.45
2023-04-18T03:30:02.187Z,9.10
2023-04-18T03:32:30.172Z,13.07
2023-04-18T03:34:56.594Z,12.38
2023-04-18T03:37:23.062Z,12.43
2023-04-18T03:39:49.549Z,14.23
2023-04-18T03:42:15.991Z,14.73
2023-04-18T03:44:42.464Z,12.30
2023-04-18T03:47:08.960Z,12.27
2023-04-18T03:49:35.559Z,14.57
2023-04-18T03:52:02.032Z,11.75
2023-04-18T03:54:30.708Z,10.63
2023-04-18T03:57:01.671Z,12.43
2023-04-18T03:59:28.154Z,10.98
2023-04-18T04:01:54.709Z,13.07
2023-04-18T04:04:21.502Z,11.18
2023-04-18T04:06:48.109Z,13.18
2023-04-18T04:09:14.632Z,13.45
2023-04-18T04:11:41.134Z,14.18
2023-04-18T04:14:07.668Z,14.00
2023-04-18T04:16:34.168Z,14.10
2023-04-18T04:19:00.788Z,14.45
2023-04-18T04:21:27.280Z,11.93
2023-04-18T04:23:53.747Z,16.77
2023-04-18T04:26:23.083Z,12.93
2023-04-18T04:28:51.610Z,15.68
2023-04-18T04:31:18.690Z,16.42
2023-04-18T04:33:46.610Z,11.43
2023-04-18T04:36:15.682Z,13.40
2023-04-18T04:38:44.408Z,12.73
2023-04-18T04:41:11.772Z,15.48
2023-04-18T04:43:41.166Z,15.57
2023-04-18T04:46:08.707Z,13.35
2023-04-18T04:48:35.184Z,13.32
2023-04-18T04:51:02.506Z,13.00
2023-04-18T04:53:35.886Z,11.00
2023-04-18T04:56:04.738Z,12.20
2023-04-18T04:58:31.173Z,13.37
2023-04-18T05:00:57.693Z,12.30
2023-04-18T05:03:24.391Z,12.05
2023-04-18T05:05:51.052Z,13.18
2023-04-18T05:08:17.473Z,13.48
2023-04-18T05:10:44.430Z,13.55
2023-04-18T05:13:10.899Z,12.07
2023-04-18T05:15:37.762Z,13.77
2023-04-18T05:18:07.154Z,10.93
2023-04-18T05:20:36.611Z,12.55
2023-04-18T05:23:04.390Z,15.55
2023-04-18T05:25:32.120Z,12.30
2023-04-18T05:28:01.146Z,11.82
2023-04-18T05:30:29.860Z,12.30
2023-04-18T05:32:56.443Z,15.32
2023-04-18T05:35:23.024Z,15.60
2023-04-18T05:37:49.587Z,12.95
2023-04-18T05:40:16.124Z,13.98
2023-04-18T05:42:42.680Z,11.40
2023-04-18T05:45:09.540Z,15.95
2023-04-18T05:47:36.132Z,14.13
2023-04-18T05:50:03.628Z,12.77
2023-04-18T05:52:30.314Z,13.73
2023-04-18T05:54:56.817Z,13.50
2023-04-18T05:57:23.275Z,14.55
2023-04-18T05:59:49.745Z,15.18
2023-04-18T06:02:16.623Z,15.55
2023-04-18T06:04:43.380Z,14.02
2023-04-18T06:07:10.365Z,12.85
2023-04-18T06:09:36.866Z,13.60
2023-04-18T06:12:06.609Z,17.38
2023-04-18T06:14:37.062Z,12.00
2023-04-18T06:17:04.123Z,13.75
2023-04-18T06:19:30.713Z,19.88
2023-04-18T06:21:57.211Z,13.93
2023-04-18T06:24:23.821Z,15.75
2023-04-18T06:26:50.335Z,13.38
2023-04-18T06:29:18.219Z,15.95
2023-04-18T06:31:48.414Z,16.95
2023-04-18T06:34:15.218Z,13.70
2023-04-18T06:36:42.446Z,15.73
2023-04-18T06:39:08.925Z,13.48
2023-04-18T06:41:35.439Z,16.35
2023-04-18T06:44:04.746Z,12.45
2023-04-18T06:46:41.996Z,13.07
2023-04-18T06:49:08.557Z,15.65
2023-04-18T06:51:35.077Z,18.73
2023-04-18T06:54:03.962Z,14.50
2023-04-18T06:56:30.544Z,12.38
2023-04-18T06:58:56.982Z,14.73
2023-04-18T07:01:23.772Z,12.93
2023-04-18T07:03:50.394Z,16.85
2023-04-18T07:06:17.069Z,12.77
2023-04-18T07:08:43.516Z,17.58
2023-04-18T07:11:11.578Z,15.52
2023-04-18T07:13:38.128Z,14.50
2023-04-18T07:16:05.008Z,20.13
2023-04-18T07:18:37.854Z,14.05
2023-04-18T07:21:07.500Z,14.07
2023-04-18T07:23:37.639Z,14.48
2023-04-18T07:26:07.230Z,13.73
2023-04-18T07:28:34.402Z,13.15
2023-04-18T07:31:04.563Z,12.25
2023-04-18T07:33:34.598Z,10.93
2023-04-18T07:36:01.742Z,13.48
2023-04-18T07:38:29.135Z,13.82
2023-04-18T07:40:59.902Z,10.32
2023-04-18T07:43:26.894Z,10.15
2023-04-18T07:45:53.782Z,13.70
2023-04-18T07:48:25.295Z,10.32
2023-04-18T07:50:52.003Z,10.88
2023-04-18T07:53:18.710Z,14.30
2023-04-18T07:55:46.276Z,12.02
2023-04-18T07:58:13.524Z,8.45
2023-04-18T08:00:42.478Z,13.15
2023-04-18T08:03:12.698Z,11.45
2023-04-18T08:05:40.516Z,11.98
2023-04-18T08:08:08.452Z,11.40
2023-04-18T08:10:35.904Z,14.77
2023-04-18T08:13:04.535Z,10.98
2023-04-18T08:15:35.052Z,10.60
2023-04-18T08:18:05.024Z,9.98
2023-04-18T08:20:35.364Z,12.68
2023-04-18T08:23:07.949Z,14.45
2023-04-18T08:25:36.933Z,9.55
2023-04-18T08:28:07.208Z,10.50
2023-04-18T08:30:36.290Z,10.23
2023-04-18T08:33:07.080Z,12.45
2023-04-18T08:35:35.448Z,10.85
2023-04-18T08:38:06.146Z,10.43
2023-04-18T08:40:35.132Z,12.85
2023-04-18T08:43:05.418Z,11.13
2023-04-18T08:45:35.277Z,13.65
2023-04-18T08:48:06.056Z,10.27
2023-04-18T08:50:34.794Z,10.43
2023-04-18T08:53:01.557Z,10.68
2023-04-18T08:55:28.251Z,12.10
2023-04-18T08:57:55.799Z,8.82
2023-04-18T09:00:23.809Z,12.25
2023-04-18T09:02:55.171Z,10.10
2023-04-18T09:05:25.051Z,7.65
2023-04-18T09:07:53.787Z,9.10
2023-04-18T09:10:29.021Z,13.30
2023-04-18T09:12:56.902Z,9.30
2023-04-18T09:15:26.835Z,13.73
2023-04-18T09:17:56.251Z,8.70
2023-04-18T09:20:27.445Z,6.35
2023-04-18T09:22:57.974Z,11.55
2023-04-18T09:25:27.679Z,7.45
2023-04-18T09:27:54.859Z,7.47
2023-04-18T09:30:42.333Z,7.53
2023-04-18T09:33:10.247Z,8.65
2023-04-18T09:35:38.533Z,8.23
2023-04-18T09:38:07.565Z,7.10
2023-04-18T09:40:37.229Z,6.28
2023-04-18T09:43:19.224Z,7.20
2023-04-18T09:45:48.224Z,6.80
2023-04-18T09:48:15.161Z,8.65
2023-04-18T09:50:42.471Z,8.13
2023-04-18T09:53:11.730Z,6.10
2023-04-18T09:55:40.230Z,6.80
2023-04-18T09:58:08.764Z,15.07
2023-04-18T10:00:37.301Z,10.20
2023-04-18T10:03:10.008Z,8.07
2023-04-18T10:05:39.841Z,11.07
2023-04-18T10:08:07.491Z,7.38
2023-04-18T10:10:38.533Z,6.97
2023-04-18T10:13:21.645Z,8.18
2023-04-18T10:15:51.208Z,6.15
2023-04-18T10:18:25.153Z,6.63
2023-04-18T10:21:02.192Z,6.93
2023-04-18T10:23:40.964Z,6.63
2023-04-18T10:26:11.458Z,8.13
2023-04-18T10:28:53.295Z,7.63
2023-04-18T10:31:24.764Z,7.05
2023-04-18T10:36:30.391Z,5.50
2023-04-18T10:39:21.409Z,5.18
2023-04-18T10:41:51.811Z,5.53
2023-04-18T10:44:27.937Z,6.25
2023-04-18T10:46:54.366Z,5.32
2023-04-18T10:49:30.272Z,8.25
2023-04-18T10:52:00.988Z,5.10
2023-04-18T10:55:04.841Z,7.18
2023-04-18T10:57:38.823Z,6.03
2023-04-18T11:00:12.862Z,5.90
2023-04-18T11:02:40.546Z,9.65
2023-04-18T11:05:08.289Z,5.75
2023-04-18T11:07:48.630Z,4.55
2023-04-18T11:10:26.758Z,5.72
2023-04-18T11:12:54.751Z,5.50
2023-04-18T11:15:23.719Z,6.32
2023-04-18T11:18:07.679Z,6.88
2023-04-18T11:20:39.365Z,5.00
2023-04-18T11:23:22.563Z,5.80
2023-04-18T11:25:54.490Z,6.97
2023-04-18T11:28:24.754Z,6.28
2023-04-18T11:30:51.397Z,5.55
2023-04-18T11:33:18.025Z,7.20
2023-04-18T11:35:45.825Z,8.68
2023-04-18T11:38:13.837Z,6.80
2023-04-18T11:40:47.592Z,5.95
2023-04-18T11:43:20.870Z,7.35
2023-04-18T11:45:54.544Z,7.40
2023-04-18T11:48:21.498Z,7.82
2023-04-18T11:50:50.623Z,7.82
2023-04-18T11:53:38.775Z,7.07
2023-04-18T11:56:37.011Z,6.68
2023-04-18T11:59:10.103Z,6.85
2023-04-18T12:05:18.063Z,6.47
2023-04-18T12:07:45.845Z,7.72
2023-04-18T12:10:53.479Z,6.55
2023-04-18T12:17:06.760Z,7.25
2023-04-18T12:19:36.289Z,7.82
2023-04-18T12:22:06.884Z,6.28
2023-04-18T12:24:33.772Z,8.02
2023-04-18T12:27:00.309Z,6.10
2023-04-18T12:32:39.461Z,6.03
2023-04-18T12:35:55.968Z,6.30
2023-04-18T12:38:23.633Z,5.00
2023-04-18T12:40:53.908Z,5.88
2023-04-18T12:43:33.818Z,4.53
2023-04-18T12:46:01.567Z,8.25
2023-04-18T12:51:16.123Z,6.78
2023-04-18T12:53:42.556Z,6.07
2023-04-18T12:56:09.076Z,6.53
2023-04-18T12:58:38.058Z,6.97
2023-04-18T13:01:05.016Z,11.50
2023-04-18T13:03:31.988Z,5.95
2023-04-18T13:05:58.554Z,6.90
2023-04-18T13:08:25.127Z,6.05
2023-04-18T13:10:51.644Z,6.47
2023-04-18T13:13:18.134Z,7.90
2023-04-18T13:15:44.621Z,6.97
2023-04-18T13:18:11.211Z,9.40
2023-04-18T13:20:37.651Z,6.00
2023-04-18T13:23:04.448Z,6.35
2023-04-18T13:25:31.351Z,6.13
2023-04-18T13:27:58.524Z,5.82
2023-04-18T13:30:25.723Z,6.55
2023-04-18T13:32:52.450Z,5.80
2023-04-18T13:35:18.992Z,6.32
2023-04-18T13:37:46.305Z,5.95
2023-04-18T13:40:13.567Z,6.80
2023-04-18T13:42:40.069Z,5.88
2023-04-18T13:45:07.438Z,5.75
2023-04-18T13:47:35.854Z,6.63
2023-04-18T13:50:02.343Z,5.75
2023-04-18T13:52:28.885Z,5.65
2023-04-18T13:54:55.469Z,6.85
2023-04-18T13:57:23.111Z,5.75
2023-04-18T13:59:49.608Z,6.88
2023-04-18T14:02:16.178Z,8.27
2023-04-18T14:04:42.895Z,7.40
2023-04-18T14:07:11.148Z,7.70
2023-04-18T14:09:38.423Z,5.35
2023-04-18T14:12:05.365Z,4.65
2023-04-18T14:14:31.892Z,5.00
2023-04-18T14:16:58.434Z,5.78
2023-04-18T14:19:25.115Z,4.90
2023-04-18T14:21:55.632Z,5.30
2023-04-18T14:24:22.161Z,4.50
2023-04-18T14:26:48.682Z,4.70
2023-04-18T14:29:15.648Z,5.15
2023-04-18T14:31:42.368Z,5.30
2023-04-18T14:34:10.707Z,4.95
2023-04-18T14:36:37.223Z,5.20
2023-04-18T14:39:03.809Z,4.72
2023-04-18T14:41:30.430Z,6.10
2023-04-18T14:43:56.865Z,5.50
2023-04-18T14:46:23.378Z,6.78
2023-04-18T14:48:49.962Z,11.15
2023-04-18T14:51:16.897Z,5.20
2023-04-18T14:53:44.521Z,6.57
2023-04-18T14:56:11.234Z,9.30
2023-04-18T14:58:39.836Z,6.03
2023-04-18T15:01:06.322Z,5.38
2023-04-18T15:03:33.357Z,5.07
2023-04-18T15:06:00.080Z,5.00
2023-04-18T15:08:26.801Z,5.40
2023-04-18T15:10:53.466Z,4.93
2023-04-18T15:13:20.309Z,5.57
2023-04-18T15:15:57.108Z,6.05
2023-04-18T15:18:23.679Z,7.47
2023-04-18T15:20:51.518Z,5.95
2023-04-18T15:23:18.067Z,4.88
2023-04-18T15:25:45.167Z,6.22
2023-04-18T15:28:13.764Z,4.93
2023-04-18T15:30:42.958Z,5.50
2023-04-18T15:33:13.870Z,5.55
2023-04-18T15:35:42.896Z,6.00
2023-04-18T15:38:10.710Z,5.53
2023-04-18T15:40:38.198Z,6.45
2023-04-18T15:43:04.800Z,4.97
2023-04-18T15:45:31.275Z,5.45
2023-04-18T15:47:57.851Z,5.40
2023-04-18T15:50:24.459Z,5.65
2023-04-18T15:52:54.242Z,5.45
2023-04-18T15:55:20.893Z,5.40
2023-04-18T15:57:47.618Z,4.95
2023-04-18T16:00:17.639Z,5.15
2023-04-18T16:02:45.835Z,5.32
2023-04-18T16:05:13.379Z,5.63
2023-04-18T16:07:41.340Z,5.03
2023-04-18T16:10:10.657Z,4.78
2023-04-18T16:12:41.925Z,4.95
2023-04-18T16:15:12.616Z,5.85
2023-04-18T16:17:42.617Z,5.30
2023-04-18T16:20:13.344Z,4.85
2023-04-18T16:22:41.413Z,4.70
2023-04-18T16:25:12.227Z,5.05
2023-04-18T16:27:42.888Z,8.25
2023-04-18T16:30:11.143Z,4.72
2023-04-18T16:32:40.307Z,5.20
2023-04-18T16:35:10.747Z,4.57
2023-04-18T16:37:39.290Z,4.78
2023-04-18T16:40:07.202Z,6.57
2023-04-18T16:42:34.029Z,4.40
2023-04-18T16:45:01.845Z,5.25
2023-04-18T16:47:28.918Z,5.95
2023-04-18T16:49:55.586Z,5.18
2023-04-18T16:52:22.537Z,6.07
2023-04-18T16:54:52.625Z,8.80
2023-04-18T16:57:19.339Z,4.70
2023-04-18T16:59:45.806Z,4.50
2023-04-18T17:02:12.382Z,7.75
2023-04-18T17:04:42.195Z,4.93
2023-04-18T17:07:10.332Z,5.82
2023-04-18T17:09:36.809Z,4.55
2023-04-18T17:12:03.444Z,5.10
2023-04-18T17:14:29.888Z,4.90
2023-04-18T17:16:56.339Z,7.43
2023-04-18T17:19:23.624Z,9.30
2023-04-18T17:21:50.898Z,6.18
2023-04-18T17:24:18.707Z,4.72
2023-04-18T17:26:45.185Z,5.22
2023-04-18T17:29:11.726Z,6.97
2023-04-18T17:31:41.842Z,8.30
2023-04-18T17:34:11.212Z,4.70
2023-04-18T17:39:41.026Z,5.30
2023-04-18T17:42:50.374Z,6.38
2023-04-18T17:45:28.170Z,3.88
2023-04-18T17:47:57.051Z,4.50
2023-04-18T17:50:25.934Z,4.72
2023-04-18T17:55:51.279Z,5.70
2023-04-18T18:01:15.078Z,6.18
2023-04-18T18:03:42.340Z,9.20
2023-04-18T18:06:18.324Z,7.65
2023-04-18T18:08:44.861Z,5.88
2023-04-18T18:11:17.659Z,7.28
2023-04-18T18:13:44.414Z,3.17
2023-04-18T18:16:10.988Z,3.13
2023-04-18T18:19:02.547Z,9.13
2023-04-18T18:21:33.785Z,6.72
2023-04-18T18:24:00.580Z,5.05
2023-04-18T18:26:30.549Z,9.98
2023-04-18T18:28:57.374Z,5.63
2023-04-18T18:31:24.930Z,4.53
2023-04-18T18:33:52.026Z,4.55
2023-04-18T18:36:18.521Z,3.17
2023-04-18T18:38:45.138Z,5.80
2023-04-18T18:41:11.854Z,4.75
2023-04-18T18:45:02.212Z,6.57
2023-04-18T18:47:31.138Z,4.78
2023-04-18T18:49:57.782Z,5.47
2023-04-18T18:52:24.828Z,8.43
2023-04-18T18:54:53.202Z,5.72
2023-04-18T18:57:35.888Z,5.95
2023-04-18T19:00:02.397Z,5.63
2023-04-18T19:02:29.092Z,5.75
2023-04-18T19:04:55.861Z,4.20
2023-04-18T19:07:22.468Z,3.97
2023-04-18T19:09:49.472Z,8.68
2023-04-18T19:12:16.175Z,5.72
2023-04-18T19:14:42.708Z,6.88
2023-04-18T19:17:12.236Z,5.75
2023-04-18T19:19:38.726Z,7.45
2023-04-18T19:22:06.515Z,4.50
2023-04-18T19:24:33.023Z,4.45
2023-04-18T19:26:59.817Z,6.28
2023-04-18T19:29:49.722Z,6.05
2023-04-18T19:32:16.258Z,7.60
2023-04-18T19:34:45.573Z,5.88
2023-04-18T19:37:14.832Z,7.63
2023-04-18T19:39:44.715Z,7.00
2023-04-18T19:42:14.953Z,5.40
2023-04-18T19:44:44.453Z,9.55
2023-04-18T19:47:13.770Z,8.30
2023-04-18T19:49:42.882Z,12.13
2023-04-18T19:52:12.589Z,7.35
2023-04-18T19:54:39.069Z,7.22
2023-04-18T19:57:06.385Z,6.45
2023-04-18T19:59:32.834Z,6.13
2023-04-18T20:02:02.022Z,8.10
2023-04-18T20:04:31.537Z,11.32
2023-04-18T20:06:58.291Z,7.43
2023-04-18T20:09:24.789Z,8.40
2023-04-18T20:11:51.342Z,8.98
2023-04-18T20:14:18.012Z,8.73
2023-04-18T20:16:45.887Z,6.90
2023-04-18T20:19:14.878Z,7.35
2023-04-18T20:21:44.740Z,6.90
2023-04-18T20:24:15.552Z,5.85
2023-04-18T20:26:43.055Z,8.35
2023-04-18T20:29:12.930Z,6.95
2023-04-18T20:31:42.811Z,7.55
2023-04-18T20:34:10.492Z,8.07
2023-04-18T20:36:41.975Z,9.50
2023-04-18T20:39:14.427Z,7.70
2023-04-18T20:41:46.659Z,5.85
2023-04-18T20:44:14.150Z,8.43
2023-04-18T20:46:43.691Z,8.10
2023-04-18T20:49:10.443Z,9.10
2023-04-18T20:51:38.004Z,9.82
2023-04-18T20:54:05.389Z,11.32
2023-04-18T20:56:32.127Z,9.93
2023-04-18T20:58:58.604Z,9.60
2023-04-18T21:01:25.148Z,6.43
2023-04-18T21:03:51.756Z,9.07
2023-04-18T21:06:21.932Z,5.45
2023-04-18T21:08:48.702Z,7.45
2023-04-18T21:11:15.342Z,6.88
2023-04-18T21:13:41.842Z,6.25
2023-04-18T21:16:10.269Z,6.82
2023-04-18T21:18:37.029Z,7.25
2023-04-18T21:21:04.485Z,7.57
2023-04-18T21:23:31.013Z,9.05
2023-04-18T21:25:57.587Z,7.25
2023-04-18T21:28:24.032Z,7.47
2023-04-18T21:30:50.700Z,6.80
2023-04-18T21:33:17.222Z,8.13
2023-04-18T21:35:46.142Z,7.95
2023-04-18T21:38:12.615Z,8.70
2023-04-18T21:40:39.066Z,7.47
2023-04-18T21:43:05.489Z,7.63
2023-04-18T21:45:32.029Z,7.47
2023-04-18T21:47:58.640Z,8.27
2023-04-18T21:50:25.333Z,7.78
2023-04-18T21:52:51.912Z,6.80
2023-04-18T21:55:18.497Z,6.25
2023-04-18T21:57:45.435Z,5.82
2023-04-18T22:00:12.826Z,9.32
2023-04-18T22:02:39.425Z,12.63
2023-04-18T22:05:08.776Z,14.32
2023-04-18T22:07:40.787Z,9.90
2023-04-18T22:10:13.407Z,6.68
2023-04-18T22:12:40.024Z,8.85
2023-04-18T22:15:06.853Z,6.03
2023-04-18T22:17:34.759Z,7.47
2023-04-18T22:20:01.254Z,8.63
2023-04-18T22:22:27.775Z,10.27
2023-04-18T22:24:54.342Z,10.07
2023-04-18T22:27:20.796Z,6.47
2023-04-18T22:29:50.559Z,9.48
2023-04-18T22:32:20.770Z,11.52
2023-04-18T22:34:48.799Z,13.68
2023-04-18T22:37:15.267Z,11.00
2023-04-18T22:39:41.718Z,9.85
2023-04-18T22:42:08.149Z,9.93
2023-04-18T22:44:34.630Z,9.85
2023-04-18T22:47:01.417Z,12.70
2023-04-18T22:49:28.379Z,9.82
2023-04-18T22:51:54.849Z,11.45
2023-04-18T22:54:22.508Z,11.27
2023-04-18T22:56:52.325Z,12.00
2023-04-18T22:59:22.331Z,14.13
2023-04-18T23:01:49.907Z,8.95
2023-04-18T23:04:16.633Z,13.40
2023-04-18T23:06:43.751Z,10.40
2023-04-18T23:09:10.355Z,8.75
2023-04-18T23:11:36.832Z,9.48
2023-04-18T23:14:03.305Z,8.27
2023-04-18T23:16:29.926Z,10.80
2023-04-18T23:18:56.440Z,10.48
2023-04-18T23:21:22.870Z,8.57
2023-04-18T23:23:49.592Z,9.73
2023-04-18T23:26:16.352Z,10.00
2023-04-18T23:28:42.845Z,8.45
2023-04-18T23:31:09.694Z,9.85
2023-04-18T23:33:36.541Z,9.75
2023-04-18T23:36:03.324Z,11.00
2023-04-18T23:38:30.669Z,11.43
2023-04-18T23:40:57.130Z,9.35
2023-04-18T23:43:23.654Z,10.60
2023-04-18T23:45:50.895Z,6.28
2023-04-18T23:48:17.362Z,9.30
2023-04-18T23:50:48.683Z,8.65
2023-04-18T23:53:17.050Z,9.02
2023-04-18T23:55:43.653Z,12.65
2023-04-18T23:58:10.209Z,11.02
